This is the latest recevied weather packets stored in our database for station/object K9RJT. If no packets are shown the sender has not sent any weather packets the latest 10 day(s).
| Time | Temp. | Humidity | Pressure | Rain* | Wind** | Luminosity | Snow |
|---|---|---|---|---|---|---|---|
| 1777872860 | 15° C | 49% | 1007.2 hPa | 0 mm | - | 0 W/m² | - |
| 1777872559 | 15° C | 49% | 1007.3 hPa | 0 mm | - | 0 W/m² | - |
| 1777872256 | 15° C | 48% | 1007.1 hPa | 0 mm | - | 0 W/m² | - |
| 1777871954 | 15° C | 48% | 1007.2 hPa | 0 mm | - | 0 W/m² | - |
| 1777871649 | 15.56° C | 48% | 1006.9 hPa | 0 mm | - | 0 W/m² | - |
| 1777871346 | 15.56° C | 47% | 1007.3 hPa | 0 mm | - | 0 W/m² | - |
| 1777871043 | 16.11° C | 47% | 1006.8 hPa | 0 mm | - | 0 W/m² | - |
| 1777870740 | 16.67° C | 44% | 1006.9 hPa | 0 mm | - | 0 W/m² | - |
| 1777870435 | 16.11° C | 47% | 1006.8 hPa | 0 mm | - | 0 W/m² | - |
| 1777870132 | 16.67° C | 46% | 1006.9 hPa | 0 mm | - | 0 W/m² | - |
| 1777869830 | 16.67° C | 45% | 1007.1 hPa | 0 mm | - | 0 W/m² | - |
| 1777869527 | 17.22° C | 44% | 1007.1 hPa | 0 mm | - | 0 W/m² | - |
| 1777869224 | 17.78° C | 43% | 1006.8 hPa | 0 mm | - | 0 W/m² | - |
| 1777868921 | 18.33° C | 42% | 1007.1 hPa | 0 mm | - | 0 W/m² | - |
| 1777868618 | 18.89° C | 42% | 1007.2 hPa | 0 mm | - | 0 W/m² | - |
| 1777868314 | 18.89° C | 41% | 1006.8 hPa | 0 mm | - | 0 W/m² | - |
| 1777868010 | 18.89° C | 41% | 1006.8 hPa | 0 mm | - | 0 W/m² | - |
| 1777867707 | 18.89° C | 40% | 1006.7 hPa | 0 mm | - | 0 W/m² | - |
| 1777867404 | 19.44° C | 39% | 1006.6 hPa | 0 mm | - | 0 W/m² | - |
| 1777867100 | 20° C | 38% | 1006.5 hPa | 0 mm | - | 0 W/m² | - |
| 1777866798 | 20° C | 39% | 1006.5 hPa | 0 mm | - | 0 W/m² | - |
| 1777866495 | 20.56° C | 37% | 1006.4 hPa | 0 mm | - | 0 W/m² | - |
| 1777866192 | 20.56° C | 36% | 1006.4 hPa | 0 mm | - | 0 W/m² | - |
| 1777865889 | 21.11° C | 35% | 1006.4 hPa | 0 mm | - | 0 W/m² | - |
| 1777865587 | 21.67° C | 35% | 1006.4 hPa | 0 mm | - | 0 W/m² | - |
* Rain latest hour (hover to see other rain measurements)
** Current wind speed in m/s (hover to see current wind gust speed)